To NAV CANADA Home Page Login to a new session Search on AWWS site Feedback and Comments Disclaimer Vers la page française équivalente Tips FAQ What's new on the site To the Forecasts and Observations / NOTAM section To "File a Flight Plan" website Publications and other links Update of the User's profile FIC Telephone Numbers My Weather Data Folder Route Weather Data Regional Weather Data Local Weather Data To the Forecasts and Observations / NOTAM section
Request Generated 07/28/2015 at 17:41:46 UTC . Weather information available at that time is displayed.

METAR/TAF

NORTH BATTLEFORD/SK    (show WxCam)

METAR CYQW 281700Z AUTO 33014G20KT 9SM CLR 19/11 A2975 RMK SLP078
DENSITY ALT 2800FT=
METAR CYQW 281600Z AUTO 33012KT 9SM CLR 17/12 A2975 RMK SLP079
DENSITY ALT 2600FT=
METAR CYQW 281500Z AUTO 33012G17KT 9SM CLR 15/11 A2976 RMK SLP082
DENSITY ALT 2300FT=

TAF CYQW 281740Z 2818/2906 32018G28KT P6SM FEW050 BKN160
FM290100 31015G25KT P6SM FEW060 SCT240
RMK FCST BASED ON AUTO OBS. NXT FCST BY 290000Z=
Your time UTC time
Weather data provided by Environment Canada and NAV CANADA